Time;durP1;ratioP1;P1;durP2;ratioP2;P2;SDS_P1;SDS_P2;PMS_P1;PMS_P2;Temp;Humidity;BMP_temperature;BMP_pressure;BME280_temperature;BME280_humidity;BME280_pressure;Samples;Min_cycle;Max_cycle;Signal;HPM_P1;HPM_P2
2023/06/28 00:01:25;;;;;;;;;;;16.40;85.30;;;;;;5042098;28;19925;-44
2023/06/28 00:03:52;;;;;;;;;;;16.40;85.40;;;;;;5013289;28;20010;-44
2023/06/28 00:06:19;;;;;;;;;;;16.40;85.60;;;;;;5012951;28;19929;-45
2023/06/28 00:08:47;;;;;;;;;;;16.40;85.30;;;;;;5014095;28;20012;-44
2023/06/28 00:11:13;;;;;;;;;;;16.30;85.60;;;;;;5031342;28;20303;-41
2023/06/28 00:13:40;;;;;;;;;;;16.30;85.70;;;;;;5009057;28;19925;-45
2023/06/28 00:16:07;;;;;;;;;;;16.30;85.60;;;;;;5030562;28;19933;-45
2023/06/28 00:18:35;;;;;;;;;;;16.30;85.50;;;;;;5031335;28;20007;-44
2023/06/28 00:21:02;;;;;;;;;;;16.30;85.50;;;;;;5031083;28;20353;-44
2023/06/28 00:23:29;;;;;;;;;;;16.30;85.80;;;;;;5012789;28;19975;-44
2023/06/28 00:25:55;;;;;;;;;;;16.20;86.00;;;;;;5031024;28;20347;-44
2023/06/28 00:28:22;;;;;;;;;;;16.20;86.10;;;;;;5013799;28;19968;-44
2023/06/28 00:30:49;;;;;;;;;;;16.20;86.30;;;;;;5030677;28;20365;-44
2023/06/28 00:33:19;;;;;;;;;;;16.20;86.30;;;;;;5029209;28;19940;-45
2023/06/28 00:35:48;;;;;;;;;;;16.20;87.20;;;;;;5030508;28;19932;-44
2023/06/28 00:38:14;;;;;;;;;;;16.20;86.30;;;;;;5031446;28;19932;-45
2023/06/28 00:40:41;;;;;;;;;;;16.20;86.30;;;;;;5030606;28;20399;-44
2023/06/28 00:43:08;;;;;;;;;;;16.10;86.50;;;;;;5030837;28;19926;-44
2023/06/28 00:45:34;;;;;;;;;;;16.10;86.80;;;;;;5030592;28;20443;-43
2023/06/28 00:48:01;;;;;;;;;;;16.10;86.50;;;;;;5013140;28;20019;-43
2023/06/28 00:50:28;;;;;;;;;;;16.10;86.50;;;;;;5046306;28;20416;-44
2023/06/28 00:52:56;;;;;;;;;;;16.10;86.90;;;;;;5030976;28;19932;-45
2023/06/28 00:55:22;;;;;;;;;;;16.10;86.80;;;;;;5030741;28;19932;-44
2023/06/28 00:57:49;;;;;;;;;;;16.10;86.70;;;;;;5030466;28;19968;-43
2023/06/28 01:00:16;;;;;;;;;;;16.00;87.00;;;;;;5031120;28;19971;-42
2023/06/28 01:02:44;;;;;;;;;;;16.00;86.80;;;;;;5013738;28;19929;-42
2023/06/28 01:05:11;;;;;;;;;;;16.00;86.60;;;;;;5032817;28;19929;-43
2023/06/28 01:07:37;;;;;;;;;;;16.00;86.80;;;;;;5033948;28;20029;-43
2023/06/28 01:10:06;;;;;;;;;;;16.00;87.10;;;;;;5032953;28;19971;-43
2023/06/28 01:12:33;;;;;;;;;;;16.00;87.10;;;;;;5035014;28;19987;-43
2023/06/28 01:14:59;;;;;;;;;;;16.00;87.30;;;;;;5016229;28;19964;-44
2023/06/28 01:17:26;;;;;;;;;;;15.90;87.20;;;;;;5050361;28;19975;-43
2023/06/28 01:19:54;;;;;;;;;;;15.90;86.90;;;;;;5017016;28;20038;-43
2023/06/28 01:22:21;;;;;;;;;;;15.90;87.20;;;;;;5029113;28;20036;-42
2023/06/28 01:24:49;;;;;;;;;;;15.90;87.20;;;;;;5016348;28;19933;-42
2023/06/28 01:27:15;;;;;;;;;;;15.90;87.20;;;;;;5007134;28;20022;-44
2023/06/28 01:29:42;;;;;;;;;;;15.90;87.10;;;;;;5015041;28;19929;-43
2023/06/28 01:32:09;;;;;;;;;;;15.80;86.90;;;;;;5034490;28;19929;-43
2023/06/28 01:34:36;;;;;;;;;;;15.80;87.30;;;;;;5033806;28;19932;-43
2023/06/28 01:37:03;;;;;;;;;;;15.80;87.30;;;;;;5012250;28;19925;-43
2023/06/28 01:39:30;;;;;;;;;;;15.80;87.20;;;;;;5016543;28;20293;-43
2023/06/28 01:41:58;;;;;;;;;;;15.80;87.10;;;;;;5049345;28;19961;-44
2023/06/28 01:44:25;;;;;;;;;;;15.80;87.60;;;;;;5033615;28;20020;-44
2023/06/28 01:46:53;;;;;;;;;;;15.80;87.40;;;;;;5033231;28;20238;-44
2023/06/28 01:49:19;;;;;;;;;;;15.70;88.00;;;;;;5033674;28;19925;-44
2023/06/28 01:51:46;;;;;;;;;;;15.70;88.20;;;;;;5033036;28;19933;-44
2023/06/28 01:54:13;;;;;;;;;;;15.70;88.70;;;;;;5033259;28;19925;-44
2023/06/28 01:56:39;;;;;;;;;;;15.70;88.70;;;;;;5033001;28;20474;-44
2023/06/28 01:59:07;;;;;;;;;;;15.70;88.70;;;;;;5033157;28;20017;-43
2023/06/28 02:01:34;;;;;;;;;;;15.70;89.50;;;;;;5014940;28;19952;-44
2023/06/28 02:04:01;;;;;;;;;;;15.70;90.10;;;;;;5031925;28;19928;-44
2023/06/28 02:06:28;;;;;;;;;;;15.70;89.70;;;;;;5032942;28;19925;-44
2023/06/28 02:08:54;;;;;;;;;;;15.70;90.00;;;;;;5013903;28;19925;-44
2023/06/28 02:11:21;;;;;;;;;;;15.70;89.90;;;;;;5015762;28;20249;-44
2023/06/28 02:13:47;;;;;;;;;;;15.60;89.50;;;;;;5015722;28;19925;-44
2023/06/28 02:16:16;;;;;;;;;;;15.60;90.00;;;;;;5032724;28;19925;-43
2023/06/28 02:18:45;;;;;;;;;;;15.60;90.00;;;;;;5033084;28;19929;-43
2023/06/28 02:21:12;;;;;;;;;;;15.60;90.70;;;;;;5033071;28;19991;-44
2023/06/28 02:23:38;;;;;;;;;;;15.60;90.10;;;;;;5032907;28;20015;-44
2023/06/28 02:26:05;;;;;;;;;;;15.60;90.30;;;;;;5032920;28;19926;-44
2023/06/28 02:28:32;;;;;;;;;;;15.60;90.20;;;;;;5015716;28;19979;-44
2023/06/28 02:30:58;;;;;;;;;;;15.60;90.40;;;;;;5014912;28;19925;-44
2023/06/28 02:33:26;;;;;;;;;;;15.60;90.30;;;;;;5048146;28;19925;-44
2023/06/28 02:35:53;;;;;;;;;;;15.60;90.70;;;;;;5015065;28;19925;-44
2023/06/28 02:38:19;;;;;;;;;;;15.60;91.10;;;;;;5032343;28;20397;-44
2023/06/28 02:40:46;;;;;;;;;;;15.60;90.80;;;;;;5032439;28;19932;-45
2023/06/28 02:43:13;;;;;;;;;;;15.50;91.10;;;;;;5014053;28;19936;-44
2023/06/28 02:45:40;;;;;;;;;;;15.60;91.30;;;;;;5031029;28;19975;-45
2023/06/28 02:48:06;;;;;;;;;;;15.60;91.00;;;;;;5015120;28;19947;-43
2023/06/28 02:50:34;;;;;;;;;;;15.50;91.30;;;;;;5032038;28;20425;-43
2023/06/28 02:53:01;;;;;;;;;;;15.60;91.60;;;;;;5034270;28;19926;-43
2023/06/28 02:55:28;;;;;;;;;;;15.60;91.30;;;;;;5015476;28;19932;-43
2023/06/28 02:57:54;;;;;;;;;;;15.60;91.90;;;;;;5032487;28;19932;-43
2023/06/28 03:00:21;;;;;;;;;;;15.60;91.80;;;;;;5032141;28;19925;-42
2023/06/28 03:02:48;;;;;;;;;;;15.50;91.60;;;;;;5030802;28;19925;-45
2023/06/28 03:05:14;;;;;;;;;;;15.60;92.20;;;;;;5014294;28;20442;-43
2023/06/28 03:07:42;;;;;;;;;;;15.60;93.10;;;;;;5007875;28;19925;-43
2023/06/28 03:10:09;;;;;;;;;;;15.60;92.50;;;;;;5014489;28;19976;-44
2023/06/28 03:12:36;;;;;;;;;;;15.60;92.40;;;;;;5031670;28;19925;-43
2023/06/28 03:15:03;;;;;;;;;;;15.60;92.20;;;;;;5045415;28;19971;-43
2023/06/28 03:17:30;;;;;;;;;;;15.60;92.30;;;;;;5014311;28;19933;-43
2023/06/28 03:19:56;;;;;;;;;;;15.60;92.50;;;;;;5030036;28;19929;-43
2023/06/28 03:22:23;;;;;;;;;;;15.60;92.40;;;;;;5031680;28;19925;-43
2023/06/28 03:24:51;;;;;;;;;;;15.60;92.20;;;;;;5032101;28;20301;-43
2023/06/28 03:27:19;;;;;;;;;;;15.60;92.30;;;;;;5014150;28;19925;-43
2023/06/28 03:29:45;;;;;;;;;;;15.70;92.30;;;;;;5030973;28;19932;-44
2023/06/28 03:32:12;;;;;;;;;;;15.70;92.60;;;;;;5031765;28;20008;-44
2023/06/28 03:34:39;;;;;;;;;;;15.70;92.50;;;;;;5045703;28;19955;-44
2023/06/28 03:37:07;;;;;;;;;;;15.70;93.10;;;;;;5031267;28;19925;-43
2023/06/28 03:39:34;;;;;;;;;;;15.70;93.10;;;;;;5024162;28;20036;-43
2023/06/28 03:42:02;;;;;;;;;;;15.70;93.30;;;;;;5014056;28;19929;-44
2023/06/28 03:44:29;;;;;;;;;;;15.70;94.00;;;;;;5009334;28;20374;-43
2023/06/28 03:46:55;;;;;;;;;;;15.70;94.60;;;;;;5026394;28;19940;-43
2023/06/28 03:49:22;;;;;;;;;;;15.70;94.20;;;;;;5031050;28;20006;-43
2023/06/28 03:51:49;;;;;;;;;;;15.70;94.50;;;;;;5031366;28;19979;-43
2023/06/28 03:54:15;;;;;;;;;;;15.70;94.30;;;;;;5013853;28;19925;-43
2023/06/28 03:56:42;;;;;;;;;;;15.70;95.30;;;;;;5012711;28;19929;-42
2023/06/28 03:59:10;;;;;;;;;;;15.70;94.70;;;;;;5030721;28;19975;-45
2023/06/28 04:01:38;;;;;;;;;;;15.70;95.40;;;;;;5040930;28;19936;-43
2023/06/28 04:04:05;;;;;;;;;;;15.70;94.80;;;;;;5003521;28;20025;-42
2023/06/28 04:06:31;;;;;;;;;;;15.70;94.80;;;;;;5020059;28;19975;-43
2023/06/28 04:08:58;;;;;;;;;;;15.70;95.40;;;;;;5031054;28;20032;-43
2023/06/28 04:11:25;;;;;;;;;;;15.70;95.80;;;;;;5029709;28;19932;-43
2023/06/28 04:13:51;;;;;;;;;;;15.70;95.50;;;;;;5011379;28;19967;-43
2023/06/28 04:16:19;;;;;;;;;;;15.70;96.10;;;;;;5012157;28;19956;-43
2023/06/28 04:18:46;;;;;;;;;;;15.70;97.00;;;;;;5046527;28;19925;-44
2023/06/28 04:21:13;;;;;;;;;;;15.70;96.80;;;;;;5009290;28;19971;-44
2023/06/28 04:23:39;;;;;;;;;;;15.70;98.00;;;;;;5031343;28;20013;-44
2023/06/28 04:26:06;;;;;;;;;;;15.70;98.20;;;;;;5030788;28;19963;-44
2023/06/28 04:28:33;;;;;;;;;;;15.70;99.40;;;;;;5016939;28;19972;-43
2023/06/28 04:30:59;;;;;;;;;;;15.70;98.20;;;;;;5027474;28;19925;-43
2023/06/28 04:33:29;;;;;;;;;;;15.70;99.00;;;;;;5030343;28;20024;-44
2023/06/28 04:35:57;;;;;;;;;;;15.70;98.70;;;;;;5007763;28;19925;-44
2023/06/28 04:38:24;;;;;;;;;;;15.70;99.90;;;;;;5024041;28;19956;-44
2023/06/28 04:40:51;;;;;;;;;;;15.70;99.00;;;;;;5016213;28;19933;-44
2023/06/28 04:43:20;;;;;;;;;;;15.70;99.90;;;;;;5024546;28;19925;-44
2023/06/28 04:45:48;;;;;;;;;;;15.70;99.90;;;;;;5017997;28;19956;-44
2023/06/28 04:48:15;;;;;;;;;;;15.60;99.50;;;;;;5047552;28;19952;-45
2023/06/28 04:50:43;;;;;;;;;;;15.60;99.70;;;;;;5029946;28;19929;-44
2023/06/28 04:53:10;;;;;;;;;;;15.70;99.80;;;;;;5032371;28;19929;-44
2023/06/28 04:55:36;;;;;;;;;;;15.70;99.90;;;;;;5040407;28;20032;-45
2023/06/28 04:58:03;;;;;;;;;;;15.70;99.90;;;;;;5008513;28;19932;-44
2023/06/28 05:00:30;;;;;;;;;;;15.70;99.90;;;;;;5049839;28;19991;-44
2023/06/28 05:02:57;;;;;;;;;;;15.70;99.90;;;;;;5020149;28;19983;-44
2023/06/28 05:05:24;;;;;;;;;;;15.70;99.90;;;;;;5033143;28;19936;-45
2023/06/28 05:07:53;;;;;;;;;;;15.70;99.90;;;;;;5031958;28;20404;-45
2023/06/28 05:10:19;;;;;;;;;;;15.70;99.90;;;;;;5015347;28;20028;-43
2023/06/28 05:12:46;;;;;;;;;;;15.70;99.90;;;;;;5014285;28;20430;-44
2023/06/28 05:15:13;;;;;;;;;;;15.70;99.90;;;;;;5030632;28;20449;-44
2023/06/28 05:17:40;;;;;;;;;;;15.70;99.90;;;;;;5033144;28;19926;-44
2023/06/28 05:20:07;;;;;;;;;;;15.70;99.90;;;;;;5034105;28;20381;-45
2023/06/28 05:22:34;;;;;;;;;;;15.70;99.90;;;;;;5034811;28;19972;-44
2023/06/28 05:25:02;;;;;;;;;;;15.70;99.90;;;;;;5030034;28;20343;-44
2023/06/28 05:27:29;;;;;;;;;;;15.80;99.90;;;;;;5027640;28;19964;-44
2023/06/28 05:29:55;;;;;;;;;;;15.80;99.90;;;;;;5025469;28;19979;-44
2023/06/28 05:32:22;;;;;;;;;;;15.80;99.90;;;;;;5016633;28;20377;-43
2023/06/28 05:34:49;;;;;;;;;;;15.90;99.90;;;;;;5034546;28;19929;-44
2023/06/28 05:37:15;;;;;;;;;;;15.90;99.90;;;;;;5017079;28;19969;-44
2023/06/28 05:39:43;;;;;;;;;;;15.90;99.90;;;;;;5016176;28;19933;-44
2023/06/28 05:42:11;;;;;;;;;;;15.90;99.90;;;;;;5016358;28;19925;-44
2023/06/28 05:44:37;;;;;;;;;;;15.90;99.90;;;;;;5034244;28;20297;-44
2023/06/28 05:47:04;;;;;;;;;;;16.00;99.90;;;;;;5034091;28;19980;-45
2023/06/28 05:49:37;;;;;;;;;;;16.00;99.90;;;;;;5032108;28;19972;-44
2023/06/28 05:52:04;;;;;;;;;;;16.00;99.90;;;;;;5027177;28;19983;-44
2023/06/28 05:54:31;;;;;;;;;;;16.10;99.90;;;;;;5014359;28;19925;-46
2023/06/28 05:56:58;;;;;;;;;;;16.10;99.90;;;;;;5014452;28;19925;-44
2023/06/28 05:59:26;;;;;;;;;;;16.10;99.90;;;;;;4996897;28;19969;-45
2023/06/28 06:01:52;;;;;;;;;;;16.10;99.90;;;;;;4996835;28;20419;-45
2023/06/28 06:04:19;;;;;;;;;;;16.10;99.90;;;;;;4996474;28;19984;-44
2023/06/28 06:06:46;;;;;;;;;;;16.20;99.90;;;;;;4996961;28;19933;-44
2023/06/28 06:09:13;;;;;;;;;;;16.20;99.90;;;;;;5032536;28;19990;-44
2023/06/28 06:11:40;;;;;;;;;;;16.20;99.90;;;;;;5033427;28;20361;-45
2023/06/28 06:14:06;;;;;;;;;;;16.30;99.90;;;;;;5033334;28;20415;-44
2023/06/28 06:16:35;;;;;;;;;;;16.30;99.90;;;;;;5033441;28;19971;-45
2023/06/28 06:19:01;;;;;;;;;;;16.30;99.90;;;;;;5033580;28;20382;-45
2023/06/28 06:21:28;;;;;;;;;;;16.30;99.90;;;;;;5033794;28;19932;-45
2023/06/28 06:23:55;;;;;;;;;;;16.30;99.90;;;;;;5033535;28;20384;-44
2023/06/28 06:26:23;;;;;;;;;;;16.30;99.90;;;;;;5033118;28;20359;-44
2023/06/28 06:28:49;;;;;;;;;;;16.30;99.90;;;;;;5033468;28;19925;-44
2023/06/28 06:31:16;;;;;;;;;;;16.30;99.90;;;;;;5033346;28;19971;-45
2023/06/28 06:33:44;;;;;;;;;;;16.30;99.90;;;;;;5033153;28;20547;-44
2023/06/28 06:36:11;;;;;;;;;;;16.30;99.90;;;;;;5047873;28;19925;-44
2023/06/28 06:38:38;;;;;;;;;;;16.40;99.90;;;;;;5033042;28;19933;-45
2023/06/28 06:41:05;;;;;;;;;;;16.40;99.90;;;;;;5015822;28;19980;-44
2023/06/28 06:43:31;;;;;;;;;;;16.40;99.90;;;;;;5015566;28;19925;-43
2023/06/28 06:45:58;;;;;;;;;;;16.50;99.90;;;;;;5033182;28;20300;-44
2023/06/28 06:48:25;;;;;;;;;;;16.50;99.90;;;;;;5015606;28;19929;-44
2023/06/28 06:50:53;;;;;;;;;;;16.50;99.90;;;;;;5016175;28;19925;-43
2023/06/28 06:53:20;;;;;;;;;;;16.50;99.90;;;;;;5016709;28;20289;-42
2023/06/28 06:55:46;;;;;;;;;;;16.60;99.90;;;;;;5033392;28;19964;-43
2023/06/28 06:58:13;;;;;;;;;;;16.50;99.90;;;;;;5033104;28;20449;-43
2023/06/28 07:00:40;;;;;;;;;;;16.50;99.90;;;;;;5015165;28;19931;-43
2023/06/28 07:03:07;;;;;;;;;;;16.50;99.90;;;;;;5014739;28;19971;-43
2023/06/28 07:05:33;;;;;;;;;;;16.50;99.90;;;;;;5031918;28;19976;-42
2023/06/28 07:08:01;;;;;;;;;;;16.60;99.90;;;;;;5031108;28;20385;-43
2023/06/28 07:10:28;;;;;;;;;;;16.60;99.90;;;;;;5015175;28;19972;-42
2023/06/28 07:12:55;;;;;;;;;;;16.70;99.90;;;;;;5032727;28;19968;-43
2023/06/28 07:15:21;;;;;;;;;;;16.70;99.90;;;;;;5048453;28;19925;-42
2023/06/28 07:17:48;;;;;;;;;;;16.70;99.90;;;;;;5032578;28;19939;-43
2023/06/28 07:20:15;;;;;;;;;;;16.80;99.90;;;;;;5032496;28;20392;-44
2023/06/28 07:22:41;;;;;;;;;;;16.90;99.90;;;;;;5031951;28;19925;-44
2023/06/28 07:25:10;;;;;;;;;;;16.90;99.90;;;;;;5014780;28;20439;-43
2023/06/28 07:27:36;;;;;;;;;;;17.00;99.90;;;;;;5032465;28;19925;-43
2023/06/28 07:30:03;;;;;;;;;;;17.00;99.90;;;;;;5014622;28;19929;-44
2023/06/28 07:32:30;;;;;;;;;;;17.00;99.90;;;;;;5032158;28;19929;-43
2023/06/28 07:34:57;;;;;;;;;;;16.90;99.90;;;;;;5032465;28;19932;-42
2023/06/28 07:37:23;;;;;;;;;;;17.00;99.90;;;;;;5015131;28;19930;-43
2023/06/28 07:39:50;;;;;;;;;;;17.00;99.90;;;;;;5031355;28;20404;-43
2023/06/28 07:42:20;;;;;;;;;;;17.00;99.90;;;;;;5031510;28;20209;-43
2023/06/28 07:44:47;;;;;;;;;;;16.90;99.90;;;;;;5032132;28;19929;-43
2023/06/28 07:47:14;;;;;;;;;;;17.00;99.90;;;;;;5032101;28;19936;-43
2023/06/28 07:49:40;;;;;;;;;;;17.00;99.90;;;;;;5032227;28;20340;-44
2023/06/28 07:52:08;;;;;;;;;;;17.00;99.90;;;;;;5014705;28;19933;-43
2023/06/28 07:54:34;;;;;;;;;;;16.90;99.90;;;;;;5032098;28;20379;-44
2023/06/28 07:57:01;;;;;;;;;;;16.90;99.90;;;;;;5032245;28;19932;-43
2023/06/28 07:59:29;;;;;;;;;;;16.90;99.90;;;;;;5013648;28;19976;-43
2023/06/28 08:01:56;;;;;;;;;;;16.80;99.90;;;;;;5031969;28;19929;-43
2023/06/28 08:04:22;;;;;;;;;;;16.70;99.90;;;;;;5013780;28;19925;-44
2023/06/28 08:06:49;;;;;;;;;;;16.80;99.90;;;;;;5030837;28;19925;-44
2023/06/28 08:09:16;;;;;;;;;;;16.80;99.90;;;;;;5013731;28;20416;-43
2023/06/28 08:11:42;;;;;;;;;;;16.80;99.90;;;;;;5031609;28;19929;-44
2023/06/28 08:14:09;;;;;;;;;;;16.80;99.90;;;;;;5031403;28;19925;-43
2023/06/28 08:16:37;;;;;;;;;;;16.90;99.90;;;;;;5031048;28;19925;-43
2023/06/28 08:19:04;;;;;;;;;;;16.90;99.90;;;;;;5032125;28;20169;-44
2023/06/28 08:21:30;;;;;;;;;;;17.00;99.90;;;;;;5031994;28;19929;-44
2023/06/28 08:23:57;;;;;;;;;;;17.10;99.90;;;;;;5031213;28;19987;-44
2023/06/28 08:26:24;;;;;;;;;;;17.10;99.90;;;;;;5031622;28;20369;-44
2023/06/28 08:28:51;;;;;;;;;;;17.10;99.90;;;;;;5031961;28;19988;-45
2023/06/28 08:31:17;;;;;;;;;;;17.20;99.90;;;;;;5013543;28;19975;-44
2023/06/28 08:33:45;;;;;;;;;;;17.20;99.90;;;;;;5013935;28;19972;-44
2023/06/28 08:36:12;;;;;;;;;;;17.30;99.90;;;;;;5012651;28;19979;-44
2023/06/28 08:38:39;;;;;;;;;;;17.30;99.90;;;;;;5013771;28;20181;-45
2023/06/28 08:41:05;;;;;;;;;;;17.40;99.90;;;;;;5031283;28;20028;-45
2023/06/28 08:43:32;;;;;;;;;;;17.60;99.90;;;;;;5031398;28;19925;-44
2023/06/28 08:45:59;;;;;;;;;;;17.60;99.90;;;;;;5031413;28;20384;-44
2023/06/28 08:48:25;;;;;;;;;;;17.60;99.90;;;;;;5013591;28;20281;-44
2023/06/28 08:50:53;;;;;;;;;;;17.70;99.90;;;;;;5031802;28;20020;-45
2023/06/28 08:53:21;;;;;;;;;;;17.70;99.90;;;;;;4996393;28;19977;-44
2023/06/28 08:55:48;;;;;;;;;;;17.60;99.90;;;;;;5011799;28;20365;-44
2023/06/28 08:58:15;;;;;;;;;;;17.60;99.90;;;;;;5012173;28;19979;-44
2023/06/28 09:00:44;;;;;;;;;;;17.70;99.90;;;;;;5011686;28;19932;-43
2023/06/28 09:03:11;;;;;;;;;;;17.70;99.90;;;;;;5012027;28;19925;-44
2023/06/28 09:05:38;;;;;;;;;;;17.70;99.90;;;;;;4994144;28;20381;-44
2023/06/28 09:08:06;;;;;;;;;;;17.60;99.90;;;;;;5004989;28;19929;-44
2023/06/28 09:10:33;;;;;;;;;;;17.60;99.90;;;;;;5046147;28;20285;-44
2023/06/28 09:12:59;;;;;;;;;;;17.60;99.90;;;;;;5031176;28;20352;-43
2023/06/28 09:15:26;;;;;;;;;;;17.60;99.90;;;;;;5013333;28;19952;-44
2023/06/28 09:17:53;;;;;;;;;;;17.70;99.90;;;;;;5013661;28;20012;-44
2023/06/28 09:20:20;;;;;;;;;;;17.70;99.90;;;;;;5031319;28;19976;-44
2023/06/28 09:23:04;;;;;;;;;;;17.80;99.90;;;;;;5031154;28;19925;-44
2023/06/28 09:25:33;;;;;;;;;;;17.80;99.90;;;;;;5016311;28;19925;-43
2023/06/28 09:28:00;;;;;;;;;;;17.80;99.90;;;;;;5034549;28;20229;-44
2023/06/28 09:30:27;;;;;;;;;;;17.80;99.90;;;;;;5034749;28;19932;-44
2023/06/28 09:32:53;;;;;;;;;;;17.90;99.90;;;;;;5034443;28;20380;-44
2023/06/28 09:35:20;;;;;;;;;;;17.90;99.90;;;;;;5034506;28;19925;-44
2023/06/28 09:37:48;;;;;;;;;;;17.90;99.90;;;;;;5034002;28;20367;-44
2023/06/28 09:40:15;;;;;;;;;;;17.90;99.90;;;;;;4997131;28;19964;-43
2023/06/28 09:42:47;;;;;;;;;;;17.90;99.90;;;;;;4997349;28;19979;-43
2023/06/28 09:45:23;;;;;;;;;;;17.90;99.90;;;;;;5029493;28;19925;-43
2023/06/28 09:47:54;;;;;;;;;;;17.90;99.90;;;;;;5016313;28;19956;-43
2023/06/28 09:50:20;;;;;;;;;;;17.90;99.90;;;;;;5034098;28;19928;-42
2023/06/28 09:52:48;;;;;;;;;;;18.00;99.90;;;;;;5020760;28;20017;-44
2023/06/28 09:55:14;;;;;;;;;;;18.00;99.90;;;;;;5026893;28;19947;-43
2023/06/28 09:57:41;;;;;;;;;;;18.00;99.90;;;;;;5016678;28;19925;-44
2023/06/28 10:00:10;;;;;;;;;;;17.90;99.90;;;;;;5016075;28;20297;-43
2023/06/28 10:02:37;;;;;;;;;;;17.90;99.90;;;;;;5016536;28;19964;-43
2023/06/28 10:05:04;;;;;;;;;;;17.90;99.90;;;;;;5015477;28;19964;-44
2023/06/28 10:07:31;;;;;;;;;;;17.90;99.90;;;;;;5034067;28;20293;-43
2023/06/28 10:09:57;;;;;;;;;;;17.90;99.90;;;;;;5015467;28;19941;-43
2023/06/28 10:12:25;;;;;;;;;;;17.80;99.90;;;;;;5049637;28;20396;-42
2023/06/28 10:14:54;;;;;;;;;;;17.90;99.90;;;;;;5049770;28;19983;-42
2023/06/28 10:17:22;;;;;;;;;;;17.90;99.90;;;;;;5033622;28;19964;-43
2023/06/28 10:19:48;;;;;;;;;;;17.90;99.90;;;;;;5016175;28;19932;-42
2023/06/28 10:22:15;;;;;;;;;;;18.00;99.90;;;;;;5033038;28;19979;-43
2023/06/28 10:24:42;;;;;;;;;;;17.90;99.90;;;;;;5033338;28;20026;-43
2023/06/28 10:27:08;;;;;;;;;;;17.90;99.90;;;;;;5015924;28;19928;-43
2023/06/28 10:29:35;;;;;;;;;;;18.00;99.90;;;;;;5033638;28;19925;-43
2023/06/28 10:32:02;;;;;;;;;;;18.00;99.90;;;;;;5015979;28;20011;-42
2023/06/28 10:34:30;;;;;;;;;;;18.10;99.90;;;;;;5015466;28;19961;-42
2023/06/28 10:36:57;;;;;;;;;;;18.20;99.90;;;;;;5011524;28;20454;-43
2023/06/28 10:39:24;;;;;;;;;;;18.30;99.90;;;;;;5031926;28;19939;-44
2023/06/28 10:41:55;;;;;;;;;;;18.30;99.90;;;;;;5048258;28;20377;-44
2023/06/28 10:44:21;;;;;;;;;;;18.30;99.90;;;;;;5030503;28;19971;-44
2023/06/28 10:46:48;;;;;;;;;;;18.30;99.90;;;;;;5015475;28;20014;-44
2023/06/28 10:49:15;;;;;;;;;;;18.40;99.90;;;;;;5033121;28;20401;-43
2023/06/28 10:51:44;;;;;;;;;;;18.40;99.90;;;;;;5032858;28;19948;-44
2023/06/28 10:54:13;;;;;;;;;;;18.50;99.90;;;;;;5014981;28;19925;-44
2023/06/28 10:56:43;;;;;;;;;;;18.50;99.90;;;;;;5033286;28;19998;-44
2023/06/28 10:59:10;;;;;;;;;;;18.50;99.90;;;;;;5032498;28;19972;-44
2023/06/28 11:01:37;;;;;;;;;;;18.50;99.90;;;;;;5032821;28;19940;-43
2023/06/28 11:04:13;;;;;;;;;;;18.50;99.90;;;;;;5014366;28;19929;-44
2023/06/28 11:06:40;;;;;;;;;;;18.60;99.90;;;;;;5032502;28;19925;-43
2023/06/28 11:09:14;;;;;;;;;;;18.70;99.90;;;;;;5031116;28;19925;-43
2023/06/28 11:11:42;;;;;;;;;;;18.70;99.90;;;;;;5013944;28;19928;-43
2023/06/28 11:14:18;;;;;;;;;;;18.80;99.90;;;;;;5032145;28;19925;-43
2023/06/28 11:16:47;;;;;;;;;;;18.90;99.90;;;;;;5013457;28;20012;-43
2023/06/28 11:19:14;;;;;;;;;;;18.90;99.90;;;;;;5031777;28;19936;-44
2023/06/28 11:21:40;;;;;;;;;;;19.00;99.90;;;;;;5014718;28;19983;-43
2023/06/28 11:24:07;;;;;;;;;;;19.10;99.90;;;;;;5032028;28;19925;-44
2023/06/28 11:26:36;;;;;;;;;;;19.10;99.90;;;;;;5013525;28;20025;-43
2023/06/28 11:29:05;;;;;;;;;;;19.00;99.90;;;;;;5031698;28;20020;-43
2023/06/28 11:31:38;;;;;;;;;;;19.00;99.90;;;;;;5031219;28;19980;-43
2023/06/28 11:34:05;;;;;;;;;;;18.90;99.90;;;;;;5014539;28;20427;-43
2023/06/28 11:36:31;;;;;;;;;;;18.90;99.90;;;;;;5032594;28;19925;-44
2023/06/28 11:38:58;;;;;;;;;;;19.00;99.90;;;;;;5032222;28;19932;-44
2023/06/28 11:41:25;;;;;;;;;;;19.00;99.90;;;;;;5014815;28;20015;-44
2023/06/28 11:44:02;;;;;;;;;;;19.10;99.90;;;;;;5032447;28;19929;-44
2023/06/28 11:46:28;;;;;;;;;;;19.10;99.90;;;;;;5031255;28;19932;-44
2023/06/28 11:48:55;;;;;;;;;;;19.10;99.90;;;;;;5032512;28;20274;-44
2023/06/28 11:51:22;;;;;;;;;;;19.20;99.90;;;;;;5031828;28;19932;-43
2023/06/28 11:53:49;;;;;;;;;;;19.20;99.90;;;;;;5032200;28;20300;-44
2023/06/28 11:56:16;;;;;;;;;;;19.20;99.90;;;;;;5031958;28;20389;-44
2023/06/28 11:58:43;;;;;;;;;;;19.20;99.90;;;;;;5031897;28;19925;-44
2023/06/28 12:01:20;;;;;;;;;;;19.20;99.90;;;;;;5014303;28;19925;-44
2023/06/28 12:03:47;;;;;;;;;;;19.20;99.90;;;;;;5031591;28;20349;-44
2023/06/28 12:06:14;;;;;;;;;;;19.20;99.90;;;;;;5047280;28;20404;-44
2023/06/28 12:08:40;;;;;;;;;;;19.20;99.90;;;;;;5031997;28;19971;-44
2023/06/28 12:11:11;;;;;;;;;;;19.20;99.90;;;;;;5032017;28;19936;-44
2023/06/28 12:13:38;;;;;;;;;;;19.20;99.90;;;;;;5031776;28;19934;-45
2023/06/28 12:16:12;;;;;;;;;;;19.20;99.90;;;;;;5031272;28;19925;-44
2023/06/28 12:18:54;;;;;;;;;;;19.30;99.90;;;;;;5031458;28;19925;-43
2023/06/28 12:21:21;;;;;;;;;;;19.30;99.90;;;;;;5031737;28;19932;-42
2023/06/28 12:23:48;;;;;;;;;;;19.40;99.90;;;;;;5031617;28;19925;-44
2023/06/28 12:26:15;;;;;;;;;;;19.50;99.90;;;;;;5013976;28;20104;-44
2023/06/28 12:28:42;;;;;;;;;;;19.50;99.90;;;;;;5031564;28;19929;-44
2023/06/28 12:31:10;;;;;;;;;;;19.50;99.90;;;;;;5030915;28;20403;-43
2023/06/28 12:33:36;;;;;;;;;;;19.60;99.90;;;;;;5014022;28;19929;-43
2023/06/28 12:36:04;;;;;;;;;;;19.60;99.90;;;;;;5031700;28;19979;-44
2023/06/28 12:38:31;;;;;;;;;;;19.60;99.90;;;;;;5014256;28;19972;-43
2023/06/28 12:40:58;;;;;;;;;;;19.50;99.90;;;;;;5031587;28;19948;-43
2023/06/28 12:43:25;;;;;;;;;;;19.60;99.90;;;;;;5013986;28;19931;-44
2023/06/28 12:45:53;;;;;;;;;;;19.60;99.90;;;;;;5031462;28;19926;-44
2023/06/28 12:48:21;;;;;;;;;;;19.60;99.90;;;;;;5030278;28;20331;-45
2023/06/28 12:50:48;;;;;;;;;;;19.60;99.90;;;;;;5013975;28;19926;-45
2023/06/28 12:53:16;;;;;;;;;;;19.60;99.90;;;;;;5014366;28;20378;-45
2023/06/28 12:55:43;;;;;;;;;;;19.70;99.90;;;;;;4994275;28;19925;-44
2023/06/28 12:58:10;;;;;;;;;;;19.70;99.90;;;;;;5031389;28;20363;-44
2023/06/28 13:00:37;;;;;;;;;;;19.80;99.90;;;;;;5014906;28;19930;-44
2023/06/28 13:03:04;;;;;;;;;;;19.80;99.90;;;;;;5017413;28;19977;-44
2023/06/28 13:05:31;;;;;;;;;;;19.80;99.90;;;;;;5035216;28;20304;-43
2023/06/28 13:08:01;;;;;;;;;;;19.90;99.90;;;;;;5016938;28;19925;-43
2023/06/28 13:10:29;;;;;;;;;;;20.00;99.90;;;;;;5033851;28;19929;-45
2023/06/28 13:12:55;;;;;;;;;;;20.00;99.90;;;;;;5050951;28;19925;-44
2023/06/28 13:15:22;;;;;;;;;;;20.10;99.90;;;;;;5016619;28;19929;-44
2023/06/28 13:17:49;;;;;;;;;;;20.20;99.90;;;;;;5017522;28;19925;-44
2023/06/28 13:20:15;;;;;;;;;;;20.20;99.90;;;;;;5032246;28;19929;-45
2023/06/28 13:22:42;;;;;;;;;;;20.20;99.90;;;;;;5032581;28;19933;-45
2023/06/28 13:25:09;;;;;;;;;;;20.30;99.90;;;;;;5050226;28;20365;-44
2023/06/28 13:27:37;;;;;;;;;;;20.30;99.90;;;;;;5034169;28;20400;-46
2023/06/28 13:30:04;;;;;;;;;;;20.40;99.90;;;;;;5034708;28;20349;-45
2023/06/28 13:32:31;;;;;;;;;;;20.50;99.90;;;;;;5034239;28;19925;-44
2023/06/28 13:34:58;;;;;;;;;;;20.40;99.90;;;;;;5016117;28;19929;-44
2023/06/28 13:37:24;;;;;;;;;;;20.40;99.90;;;;;;5023711;28;19979;-45
2023/06/28 13:39:51;;;;;;;;;;;20.40;99.90;;;;;;5034932;28;20630;-45
2023/06/28 13:42:19;;;;;;;;;;;20.40;99.90;;;;;;5033545;28;20357;-44
2023/06/28 13:44:47;;;;;;;;;;;20.30;99.90;;;;;;5034540;28;19992;-45
2023/06/28 13:47:13;;;;;;;;;;;20.30;99.90;;;;;;5049821;28;19936;-45
2023/06/28 13:49:40;;;;;;;;;;;20.30;99.90;;;;;;5049834;28;19925;-45
2023/06/28 13:52:07;;;;;;;;;;;20.40;99.90;;;;;;5033596;28;19932;-44
2023/06/28 13:54:35;;;;;;;;;;;20.40;99.90;;;;;;5016150;28;20397;-45
2023/06/28 13:57:02;;;;;;;;;;;20.40;99.90;;;;;;5015739;28;20021;-44
2023/06/28 13:59:29;;;;;;;;;;;20.40;99.90;;;;;;5013935;28;19925;-44
2023/06/28 14:01:57;;;;;;;;;;;20.30;99.90;;;;;;5031297;28;19933;-44
2023/06/28 14:04:24;;;;;;;;;;;20.30;99.90;;;;;;5033597;28;20358;-44
2023/06/28 14:06:51;;;;;;;;;;;20.30;99.90;;;;;;5033963;28;19924;-45
2023/06/28 14:09:17;;;;;;;;;;;20.30;99.90;;;;;;5047470;28;20055;-44
2023/06/28 14:11:44;;;;;;;;;;;20.30;99.90;;;;;;5031619;28;19933;-44
2023/06/28 14:14:11;;;;;;;;;;;20.30;99.90;;;;;;5033950;28;19948;-45
2023/06/28 14:16:38;;;;;;;;;;;20.30;99.90;;;;;;5034041;28;19929;-44